EGNX Airport Information

Runway Information
Runway 09 Length 9491 ft width 148 ft Elevation 306 ft Threshold 590 ft Heading 88
Runway 27 Length 9491 ft Width 148 ft Elevation 282 ft Threshold 426 ft Heading 268
Airport Frequencies
Type APP Name APP Frequency 134.175 MHZ
Type ATIS Name ATIS Frequency 128.225 MHZ
Type GND Name GND Frequency 121.9 MHZ
Type TWR Name TWR Frequency 124 MHZ
Type Fire servi Name Frequency 121.6 MHZ
Airport Navaids
Airport Weather Information & NOTAM
ADDS - METARS form results

(0211 UTC 05 December 2022)
Data provider http://aviationweather.gov/metar/data/
 
METAR text: EGNX 050150Z 05007KT 9999 SCT015 BKN032 05/04 Q1022
Conditions at: EGNX (EAST MIDLANDS , GB) observed 0150 UTC 05 December 2022
Temperature: 5.0°C (41°F)
Dewpoint: 4.0°C (39°F) [RH = 93%]
Pressure (altimeter): 30.18 inches Hg (1022.0 mb)
Winds: from the NE (50 degrees) at 8 MPH (7 knots; 3.6 m/s)
Visibility: 6 or more miles (10+ km)
Ceiling: 3200 feet AGL
Clouds: scattered clouds at 1500 feet AGL
broken clouds at 3200 feet AGL
Weather: no significant weather observed at this time

METAR text: EGNX 050120Z 04007KT 9000 SCT020 BKN034 05/04 Q1022
Conditions at: EGNX (EAST MIDLANDS , GB) observed 0120 UTC 05 December 2022
Temperature: 5.0°C (41°F)
Dewpoint: 4.0°C (39°F) [RH = 93%]
Pressure (altimeter): 30.18 inches Hg (1022.0 mb)
Winds: from the NE (40 degrees) at 8 MPH (7 knots; 3.6 m/s)
Visibility: 6 miles ( 9 km)
Ceiling: 3400 feet AGL
Clouds: scattered clouds at 2000 feet AGL
broken clouds at 3400 feet AGL
Weather: no significant weather observed at this time

Forecast for: EGNX (EAST MIDLANDS , GB)
Text: TAF EGNX 042257Z 0500/0524 05009KT 9999 SCT010 BKN020
Forecast period: 0000 UTC 05 December 2022 to 0000 UTC 06 December 2022
Forecast type: FROM: standard forecast or significant change
Winds: from the NE (50 degrees) at 10 MPH (9 knots; 4.6 m/s)
Visibility: 6 or more miles (10+ km)
Ceiling: 2000 feet AGL
Clouds: scattered clouds at 1000 feet AGL
broken clouds at 2000 feet AGL
Weather: no significant weather forecast for this period
Text: TEMPO 0500/0518 BKN014
Forecast period: 0000 to 1800 UTC 05 December 2022
Forecast type: TEMPORARY: The following changes expected for less than half the time period
Visibility: missing
Ceiling: 1400 feet AGL
Clouds: broken clouds at 1400 feet AGL
Weather: no significant weather forecast for this period
Text: PROB40
Forecast period: 0000 to 1800 UTC 05 December 2022
Forecast type: TEMPORARY: The following changes expected for less than half the time period
Visibility: 4 miles (7 km)
Ceiling: 900 feet AGL
Clouds: broken clouds at 900 feet AGL
Weather: SHRA  (rain showers)
Text: TEMPO 0500/0518 7000 SHRA BKN009
Forecast period: 1800 to 2300 UTC 05 December 2022
Forecast type: TEMPORARY: The following changes expected for less than half the time period
Visibility: 5 miles (8 km)
Ceiling: 1400 feet AGL
Clouds: broken clouds at 1400 feet AGL
Weather: -SHRA  (light rain showers)